Aviation Digital Data Service (ADDS)

Output produced by METARs form (0018 UTC 17 July 2019)
found at http://www.aviationweather.gov/metar/data/
 
METAR text: EFMA 162350Z AUTO 33001KT 1000 0700 R21/1300D BCFG NCD 07/07 Q1010
Conditions at: EFMA (MARIEHAMN/ALAND , FI) observed 2350 UTC 16 July 2019
Temperature: 7.0°C (45°F)
Dewpoint: 7.0°C (45°F) [RH = 100%]
Pressure (altimeter): 29.82 inches Hg (1010.0 mb)
Winds: from the NNW (330 degrees) at 1 MPH (1 knots; 0.5 m/s)
Visibility: 0.62 miles (1.00 km)
Ceiling: at least 12,000 feet AGL
Clouds: sky clear below 12,000 feet AGL
Weather: BCFG  (patches of fog)

METAR text: EFMA 162320Z AUTO 01003KT 1900 1000 R21/1800U BCFG NCD 07/06 Q1010
Conditions at: EFMA (MARIEHAMN/ALAND , FI) observed 2320 UTC 16 July 2019
Temperature: 7.0°C (45°F)
Dewpoint: 6.0°C (43°F) [RH = 93%]
Pressure (altimeter): 29.82 inches Hg (1010.0 mb)
Winds: from the N (10 degrees) at 3 MPH (3 knots; 1.5 m/s)
Visibility: 1.18 miles (1.90 km)
Ceiling: at least 12,000 feet AGL
Clouds: sky clear below 12,000 feet AGL
Weather: BCFG  (patches of fog)

METAR text: EFMA 162250Z AUTO VRB01KT 2500 1000 R21/1800N BCFG NCD 08/07 Q1010
Conditions at: EFMA (MARIEHAMN/ALAND , FI) observed 2250 UTC 16 July 2019
Temperature: 8.0°C (46°F)
Dewpoint: 7.0°C (45°F) [RH = 93%]
Pressure (altimeter): 29.82 inches Hg (1010.0 mb)
Winds: variable direction winds at 1 MPH (1 knots; 0.5 m/s)
Visibility: 1.55 miles (2.49 km)
Ceiling: at least 12,000 feet AGL
Clouds: sky clear below 12,000 feet AGL
Weather: BCFG  (patches of fog)

METAR text: EFMA 162220Z AUTO VRB01KT 9999 2300 NCD 09/08 Q1009
Conditions at: EFMA (MARIEHAMN/ALAND , FI) observed 2220 UTC 16 July 2019
Temperature: 9.0°C (48°F)
Dewpoint: 8.0°C (46°F) [RH = 93%]
Pressure (altimeter): 29.79 inches Hg (1009.0 mb)
Winds: variable direction winds at 1 MPH (1 knots; 0.5 m/s)
Visibility: 6 or more miles (10+ km)
Ceiling: at least 12,000 feet AGL
Clouds: sky clear below 12,000 feet AGL
Weather: no significant weather observed at this time

METAR text: EFMA 162150Z AUTO 15002KT 6000 0750 R21/1400D BCFG NCD 10/09 Q1009
Conditions at: EFMA (MARIEHAMN/ALAND , FI) observed 2150 UTC 16 July 2019
Temperature: 10.0°C (50°F)
Dewpoint: 9.0°C (48°F) [RH = 93%]
Pressure (altimeter): 29.79 inches Hg (1009.0 mb)
Winds: from the SSE (150 degrees) at 2 MPH (2 knots; 1.0 m/s)
Visibility: 4 miles ( 6 km)
Ceiling: at least 12,000 feet AGL
Clouds: sky clear below 12,000 feet AGL
Weather: BCFG  (patches of fog)

METAR text: EFMA 162120Z AUTO 20003KT 9999 FEW006 12/11 Q1009
Conditions at: EFMA (MARIEHAMN/ALAND , FI) observed 2120 UTC 16 July 2019
Temperature: 12.0°C (54°F)
Dewpoint: 11.0°C (52°F) [RH = 94%]
Pressure (altimeter): 29.79 inches Hg (1009.0 mb)
Winds: from the SSW (200 degrees) at 3 MPH (3 knots; 1.5 m/s)
Visibility: 6 or more miles (10+ km)
Ceiling: at least 12,000 feet AGL
Clouds: few clouds at 600 feet AGL
Weather: no significant weather observed at this time

METAR text: EFMA 162050Z AUTO 19004KT 9999 BKN006 12/11 Q1009
Conditions at: EFMA (MARIEHAMN/ALAND , FI) observed 2050 UTC 16 July 2019
Temperature: 12.0°C (54°F)
Dewpoint: 11.0°C (52°F) [RH = 94%]
Pressure (altimeter): 29.79 inches Hg (1009.0 mb)
Winds: from the S (190 degrees) at 5 MPH (4 knots; 2.1 m/s)
Visibility: 6 or more miles (10+ km)
Ceiling: 600 feet AGL
Clouds: broken clouds at 600 feet AGL
Weather: no significant weather observed at this time

METAR text: EFMA 162020Z AUTO 20005KT 9999 BKN006 BKN040 12/11 Q1008
Conditions at: EFMA (MARIEHAMN/ALAND , FI) observed 2020 UTC 16 July 2019
Temperature: 12.0°C (54°F)
Dewpoint: 11.0°C (52°F) [RH = 94%]
Pressure (altimeter): 29.76 inches Hg (1008.0 mb)
Winds: from the SSW (200 degrees) at 6 MPH (5 knots; 2.6 m/s)
Visibility: 6 or more miles (10+ km)
Ceiling: 600 feet AGL
Clouds: broken clouds at 600 feet AGL
broken clouds at 4000 feet AGL
Weather: no significant weather observed at this time

METAR text: EFMA 161950Z AUTO 21003KT 9999 OVC034 13/11 Q1008
Conditions at: EFMA (MARIEHAMN/ALAND , FI) observed 1950 UTC 16 July 2019
Temperature: 13.0°C (55°F)
Dewpoint: 11.0°C (52°F) [RH = 88%]
Pressure (altimeter): 29.76 inches Hg (1008.0 mb)
Winds: from the SSW (210 degrees) at 3 MPH (3 knots; 1.5 m/s)
Visibility: 6 or more miles (10+ km)
Ceiling: 3400 feet AGL
Clouds: overcast cloud deck at 3400 feet AGL
Weather: no significant weather observed at this time

METAR text: EFMA 161920Z AUTO 20004KT 9999 OVC034 13/11 Q1008
Conditions at: EFMA (MARIEHAMN/ALAND , FI) observed 1920 UTC 16 July 2019
Temperature: 13.0°C (55°F)
Dewpoint: 11.0°C (52°F) [RH = 88%]
Pressure (altimeter): 29.76 inches Hg (1008.0 mb)
Winds: from the SSW (200 degrees) at 5 MPH (4 knots; 2.1 m/s)
Visibility: 6 or more miles (10+ km)
Ceiling: 3400 feet AGL
Clouds: overcast cloud deck at 3400 feet AGL
Weather: no significant weather observed at this time

METAR text: EFMA 161850Z AUTO 22003KT 9999 VCSH OVC033 //////CB 13/11 Q1008
Conditions at: EFMA (MARIEHAMN/ALAND , FI) observed 1850 UTC 16 July 2019
Temperature: 13.0°C (55°F)
Dewpoint: 11.0°C (52°F) [RH = 88%]
Pressure (altimeter): 29.76 inches Hg (1008.0 mb)
Winds: from the SW (220 degrees) at 3 MPH (3 knots; 1.5 m/s)
Visibility: 6 or more miles (10+ km)
Ceiling: 3300 feet AGL
Clouds: overcast cloud deck at 3300 feet AGL
Weather: VCSH  (showers in vicinity)

METAR text: EFMA 161820Z AUTO 24004KT 210V280 9999 VCSH BKN032 OVC046 //////CB 13/11 Q1008
Conditions at: EFMA (MARIEHAMN/ALAND , FI) observed 1820 UTC 16 July 2019
Temperature: 13.0°C (55°F)
Dewpoint: 11.0°C (52°F) [RH = 88%]
Pressure (altimeter): 29.76 inches Hg (1008.0 mb)
Winds: from the WSW (240 degrees) at 5 MPH (4 knots; 2.1 m/s)
Visibility: 6 or more miles (10+ km)
Ceiling: 3200 feet AGL
Clouds: broken clouds at 3200 feet AGL
overcast cloud deck at 4600 feet AGL
Weather: VCSH  (showers in vicinity)

METAR text: EFMA 161750Z AUTO 24003KT 200V270 9999 FEW010 BKN042 13/11 Q1008
Conditions at: EFMA (MARIEHAMN/ALAND , FI) observed 1750 UTC 16 July 2019
Temperature: 13.0°C (55°F)
Dewpoint: 11.0°C (52°F) [RH = 88%]
Pressure (altimeter): 29.76 inches Hg (1008.0 mb)
Winds: from the WSW (240 degrees) at 3 MPH (3 knots; 1.5 m/s)
Visibility: 6 or more miles (10+ km)
Ceiling: 4200 feet AGL
Clouds: few clouds at 1000 feet AGL
broken clouds at 4200 feet AGL
Weather: no significant weather observed at this time

METAR text: EFMA 161720Z AUTO VRB02KT 9999 -SHRA SCT008 OVC050 13/12 Q1008
Conditions at: EFMA (MARIEHAMN/ALAND , FI) observed 1720 UTC 16 July 2019
Temperature: 13.0°C (55°F)
Dewpoint: 12.0°C (54°F) [RH = 94%]
Pressure (altimeter): 29.76 inches Hg (1008.0 mb)
Winds: variable direction winds at 2 MPH (2 knots; 1.0 m/s)
Visibility: 6 or more miles (10+ km)
Ceiling: 5000 feet AGL
Clouds: scattered clouds at 800 feet AGL
overcast cloud deck at 5000 feet AGL
Weather: -SHRA  (light rain showers)

METAR text: EFMA 161650Z AUTO 33006KT 290V350 9999 SCT012 OVC059 13/11 Q1008
Conditions at: EFMA (MARIEHAMN/ALAND , FI) observed 1650 UTC 16 July 2019
Temperature: 13.0°C (55°F)
Dewpoint: 11.0°C (52°F) [RH = 88%]
Pressure (altimeter): 29.76 inches Hg (1008.0 mb)
Winds: from the NNW (330 degrees) at 7 MPH (6 knots; 3.1 m/s)
Visibility: 6 or more miles (10+ km)
Ceiling: 5900 feet AGL
Clouds: scattered clouds at 1200 feet AGL
overcast cloud deck at 5900 feet AGL
Weather: no significant weather observed at this time

METAR text: EFMA 161620Z AUTO 34005KT 300V010 9999 -SHRA NSC 13/11 Q1007
Conditions at: EFMA (MARIEHAMN/ALAND , FI) observed 1620 UTC 16 July 2019
Temperature: 13.0°C (55°F)
Dewpoint: 11.0°C (52°F) [RH = 88%]
Pressure (altimeter): 29.73 inches Hg (1007.0 mb)
Winds: from the NNW (340 degrees) at 6 MPH (5 knots; 2.6 m/s)
Visibility: 6 or more miles (10+ km)
Ceiling: at least 12,000 feet AGL
Clouds: sky clear below 12,000 feet AGL
Weather: -SHRA  (light rain showers)

METAR text: EFMA 161550Z AUTO 36005KT 330V030 9999 VCSH FEW046 BKN068 //////CB 14/11 Q1007
Conditions at: EFMA (MARIEHAMN/ALAND , FI) observed 1550 UTC 16 July 2019
Temperature: 14.0°C (57°F)
Dewpoint: 11.0°C (52°F) [RH = 82%]
Pressure (altimeter): 29.73 inches Hg (1007.0 mb)
Winds: from the N (360 degrees) at 6 MPH (5 knots; 2.6 m/s)
Visibility: 6 or more miles (10+ km)
Ceiling: 6800 feet AGL
Clouds: few clouds at 4600 feet AGL
broken clouds at 6800 feet AGL
Weather: VCSH  (showers in vicinity)

METAR text: EFMA 161520Z AUTO 01007KT 9999 RA FEW020 OVC059 14/11 Q1007
Conditions at: EFMA (MARIEHAMN/ALAND , FI) observed 1520 UTC 16 July 2019
Temperature: 14.0°C (57°F)
Dewpoint: 11.0°C (52°F) [RH = 82%]
Pressure (altimeter): 29.73 inches Hg (1007.0 mb)
Winds: from the N (10 degrees) at 8 MPH (7 knots; 3.6 m/s)
Visibility: 6 or more miles (10+ km)
Ceiling: 5900 feet AGL
Clouds: few clouds at 2000 feet AGL
overcast cloud deck at 5900 feet AGL
Weather: RA  (moderate rain)

METAR text: EFMA 161450Z AUTO 02007KT 350V050 9999 FEW020 BKN064 15/11 Q1007
Conditions at: EFMA (MARIEHAMN/ALAND , FI) observed 1450 UTC 16 July 2019
Temperature: 15.0°C (59°F)
Dewpoint: 11.0°C (52°F) [RH = 77%]
Pressure (altimeter): 29.73 inches Hg (1007.0 mb)
Winds: from the NNE (20 degrees) at 8 MPH (7 knots; 3.6 m/s)
Visibility: 6 or more miles (10+ km)
Ceiling: 6400 feet AGL
Clouds: few clouds at 2000 feet AGL
broken clouds at 6400 feet AGL
Weather: no significant weather observed at this time

METAR text: EFMA 161420Z AUTO 02005KT 320V060 9999 FEW016 SCT018 BKN038 15/11 Q1007
Conditions at: EFMA (MARIEHAMN/ALAND , FI) observed 1420 UTC 16 July 2019
Temperature: 15.0°C (59°F)
Dewpoint: 11.0°C (52°F) [RH = 77%]
Pressure (altimeter): 29.73 inches Hg (1007.0 mb)
Winds: from the NNE (20 degrees) at 6 MPH (5 knots; 2.6 m/s)
Visibility: 6 or more miles (10+ km)
Ceiling: 3800 feet AGL
Clouds: few clouds at 1600 feet AGL
scattered clouds at 1800 feet AGL
broken clouds at 3800 feet AGL
Weather: no significant weather observed at this time

METAR text: EFMA 161350Z AUTO 02006KT 9999 -SHRA BKN015 15/11 Q1006
Conditions at: EFMA (MARIEHAMN/ALAND , FI) observed 1350 UTC 16 July 2019
Temperature: 15.0°C (59°F)
Dewpoint: 11.0°C (52°F) [RH = 77%]
Pressure (altimeter): 29.70 inches Hg (1006.0 mb)
Winds: from the NNE (20 degrees) at 7 MPH (6 knots; 3.1 m/s)
Visibility: 6 or more miles (10+ km)
Ceiling: 1500 feet AGL
Clouds: broken clouds at 1500 feet AGL
Weather: -SHRA  (light rain showers)

METAR text: EFMA 161320Z AUTO 35003KT 310V020 9999 -SHRA SCT016 BKN066 BKN078 15/11 Q1006
Conditions at: EFMA (MARIEHAMN/ALAND , FI) observed 1320 UTC 16 July 2019
Temperature: 15.0°C (59°F)
Dewpoint: 11.0°C (52°F) [RH = 77%]
Pressure (altimeter): 29.70 inches Hg (1006.0 mb)
Winds: from the N (350 degrees) at 3 MPH (3 knots; 1.5 m/s)
Visibility: 6 or more miles (10+ km)
Ceiling: 6600 feet AGL
Clouds: scattered clouds at 1600 feet AGL
broken clouds at 6600 feet AGL
broken clouds at 7800 feet AGL
Weather: -SHRA  (light rain showers)

METAR text: EFMA 161250Z AUTO 33003KT 290V030 9999 -RA SCT022 OVC076 15/11 Q1006
Conditions at: EFMA (MARIEHAMN/ALAND , FI) observed 1250 UTC 16 July 2019
Temperature: 15.0°C (59°F)
Dewpoint: 11.0°C (52°F) [RH = 77%]
Pressure (altimeter): 29.70 inches Hg (1006.0 mb)
Winds: from the NNW (330 degrees) at 3 MPH (3 knots; 1.5 m/s)
Visibility: 6 or more miles (10+ km)
Ceiling: 7600 feet AGL
Clouds: scattered clouds at 2200 feet AGL
overcast cloud deck at 7600 feet AGL
Weather: -RA  (light rain)

METAR text: EFMA 161220Z AUTO VRB02KT 9999 -RA NSC 14/10 Q1006
Conditions at: EFMA (MARIEHAMN/ALAND , FI) observed 1220 UTC 16 July 2019
Temperature: 14.0°C (57°F)
Dewpoint: 10.0°C (50°F) [RH = 77%]
Pressure (altimeter): 29.70 inches Hg (1006.0 mb)
Winds: variable direction winds at 2 MPH (2 knots; 1.0 m/s)
Visibility: 6 or more miles (10+ km)
Ceiling: at least 12,000 feet AGL
Clouds: sky clear below 12,000 feet AGL
Weather: -RA  (light rain)

METAR text: EFMA 161150Z AUTO VRB02KT 9999 SCT019 BKN060 14/10 Q1006
Conditions at: EFMA (MARIEHAMN/ALAND , FI) observed 1150 UTC 16 July 2019
Temperature: 14.0°C (57°F)
Dewpoint: 10.0°C (50°F) [RH = 77%]
Pressure (altimeter): 29.70 inches Hg (1006.0 mb)
Winds: variable direction winds at 2 MPH (2 knots; 1.0 m/s)
Visibility: 6 or more miles (10+ km)
Ceiling: 6000 feet AGL
Clouds: scattered clouds at 1900 feet AGL
broken clouds at 6000 feet AGL
Weather: no significant weather observed at this time

METAR text: EFMA 161120Z AUTO VRB02KT 9999 FEW016 SCT019 BKN054 15/10 Q1006
Conditions at: EFMA (MARIEHAMN/ALAND , FI) observed 1120 UTC 16 July 2019
Temperature: 15.0°C (59°F)
Dewpoint: 10.0°C (50°F) [RH = 72%]
Pressure (altimeter): 29.70 inches Hg (1006.0 mb)
Winds: variable direction winds at 2 MPH (2 knots; 1.0 m/s)
Visibility: 6 or more miles (10+ km)
Ceiling: 5400 feet AGL
Clouds: few clouds at 1600 feet AGL
scattered clouds at 1900 feet AGL
broken clouds at 5400 feet AGL
Weather: no significant weather observed at this time

METAR text: EFMA 161050Z AUTO 29003KT 260V340 CAVOK 14/09 Q1005
Conditions at: EFMA (MARIEHAMN/ALAND , FI) observed 1050 UTC 16 July 2019
Temperature: 14.0°C (57°F)
Dewpoint: 9.0°C (48°F) [RH = 72%]
Pressure (altimeter): 29.68 inches Hg (1005.0 mb)
Winds: from the WNW (290 degrees) at 3 MPH (3 knots; 1.5 m/s)
Visibility: 6 or more miles (10+ km)
Ceiling: ceiling and visibility are OK
Clouds: unknown
Weather: no significant weather observed at this time

METAR text: EFMA 161020Z AUTO 20004KT 170V230 CAVOK 13/10 Q1005
Conditions at: EFMA (MARIEHAMN/ALAND , FI) observed 1020 UTC 16 July 2019
Temperature: 13.0°C (55°F)
Dewpoint: 10.0°C (50°F) [RH = 82%]
Pressure (altimeter): 29.68 inches Hg (1005.0 mb)
Winds: from the SSW (200 degrees) at 5 MPH (4 knots; 2.1 m/s)
Visibility: 6 or more miles (10+ km)
Ceiling: ceiling and visibility are OK
Clouds: unknown
Weather: no significant weather observed at this time

METAR text: EFMA 160950Z AUTO 21004KT 190V250 CAVOK 13/10 Q1005
Conditions at: EFMA (MARIEHAMN/ALAND , FI) observed 0950 UTC 16 July 2019
Temperature: 13.0°C (55°F)
Dewpoint: 10.0°C (50°F) [RH = 82%]
Pressure (altimeter): 29.68 inches Hg (1005.0 mb)
Winds: from the SSW (210 degrees) at 5 MPH (4 knots; 2.1 m/s)
Visibility: 6 or more miles (10+ km)
Ceiling: ceiling and visibility are OK
Clouds: unknown
Weather: no significant weather observed at this time

METAR text: EFMA 160920Z AUTO 20005KT CAVOK 13/10 Q1005
Conditions at: EFMA (MARIEHAMN/ALAND , FI) observed 0920 UTC 16 July 2019
Temperature: 13.0°C (55°F)
Dewpoint: 10.0°C (50°F) [RH = 82%]
Pressure (altimeter): 29.68 inches Hg (1005.0 mb)
Winds: from the SSW (200 degrees) at 6 MPH (5 knots; 2.6 m/s)
Visibility: 6 or more miles (10+ km)
Ceiling: ceiling and visibility are OK
Clouds: unknown
Weather: no significant weather observed at this time

METAR text: EFMA 160850Z AUTO 20006KT 9999 FEW021 SCT031 BKN064 13/10 Q1004
Conditions at: EFMA (MARIEHAMN/ALAND , FI) observed 0850 UTC 16 July 2019
Temperature: 13.0°C (55°F)
Dewpoint: 10.0°C (50°F) [RH = 82%]
Pressure (altimeter): 29.65 inches Hg (1004.0 mb)
Winds: from the SSW (200 degrees) at 7 MPH (6 knots; 3.1 m/s)
Visibility: 6 or more miles (10+ km)
Ceiling: 6400 feet AGL
Clouds: few clouds at 2100 feet AGL
scattered clouds at 3100 feet AGL
broken clouds at 6400 feet AGL
Weather: no significant weather observed at this time

METAR text: EFMA 160820Z AUTO 16004KT 110V190 CAVOK 14/09 Q1004
Conditions at: EFMA (MARIEHAMN/ALAND , FI) observed 0820 UTC 16 July 2019
Temperature: 14.0°C (57°F)
Dewpoint: 9.0°C (48°F) [RH = 72%]
Pressure (altimeter): 29.65 inches Hg (1004.0 mb)
Winds: from the SSE (160 degrees) at 5 MPH (4 knots; 2.1 m/s)
Visibility: 6 or more miles (10+ km)
Ceiling: ceiling and visibility are OK
Clouds: unknown
Weather: no significant weather observed at this time

METAR text: EFMA 160750Z AUTO VRB02KT 9999 SCT014 14/09 Q1004
Conditions at: EFMA (MARIEHAMN/ALAND , FI) observed 0750 UTC 16 July 2019
Temperature: 14.0°C (57°F)
Dewpoint: 9.0°C (48°F) [RH = 72%]
Pressure (altimeter): 29.65 inches Hg (1004.0 mb)
Winds: variable direction winds at 2 MPH (2 knots; 1.0 m/s)
Visibility: 6 or more miles (10+ km)
Ceiling: at least 12,000 feet AGL
Clouds: scattered clouds at 1400 feet AGL
Weather: no significant weather observed at this time

METAR text: EFMA 160720Z AUTO 27004KT 170V340 9999 FEW012 13/10 Q1004
Conditions at: EFMA (MARIEHAMN/ALAND , FI) observed 0720 UTC 16 July 2019
Temperature: 13.0°C (55°F)
Dewpoint: 10.0°C (50°F) [RH = 82%]
Pressure (altimeter): 29.65 inches Hg (1004.0 mb)
Winds: from the W (270 degrees) at 5 MPH (4 knots; 2.1 m/s)
Visibility: 6 or more miles (10+ km)
Ceiling: at least 12,000 feet AGL
Clouds: few clouds at 1200 feet AGL
Weather: no significant weather observed at this time

METAR text: EFMA 160650Z AUTO 27003KT 210V330 9999 BKN010 13/11 Q1004
Conditions at: EFMA (MARIEHAMN/ALAND , FI) observed 0650 UTC 16 July 2019
Temperature: 13.0°C (55°F)
Dewpoint: 11.0°C (52°F) [RH = 88%]
Pressure (altimeter): 29.65 inches Hg (1004.0 mb)
Winds: from the W (270 degrees) at 3 MPH (3 knots; 1.5 m/s)
Visibility: 6 or more miles (10+ km)
Ceiling: 1000 feet AGL
Clouds: broken clouds at 1000 feet AGL
Weather: no significant weather observed at this time

METAR text: EFMA 160620Z AUTO 24005KT 200V280 9999 SCT009 BKN041 14/11 Q1003
Conditions at: EFMA (MARIEHAMN/ALAND , FI) observed 0620 UTC 16 July 2019
Temperature: 14.0°C (57°F)
Dewpoint: 11.0°C (52°F) [RH = 82%]
Pressure (altimeter): 29.62 inches Hg (1003.0 mb)
Winds: from the WSW (240 degrees) at 6 MPH (5 knots; 2.6 m/s)
Visibility: 6 or more miles (10+ km)
Ceiling: 4100 feet AGL
Clouds: scattered clouds at 900 feet AGL
broken clouds at 4100 feet AGL
Weather: no significant weather observed at this time

METAR text: EFMA 160550Z AUTO 28005KT 9999 FEW007 BKN054 12/10 Q1003
Conditions at: EFMA (MARIEHAMN/ALAND , FI) observed 0550 UTC 16 July 2019
Temperature: 12.0°C (54°F)
Dewpoint: 10.0°C (50°F) [RH = 88%]
Pressure (altimeter): 29.62 inches Hg (1003.0 mb)
Winds: from the W (280 degrees) at 6 MPH (5 knots; 2.6 m/s)
Visibility: 6 or more miles (10+ km)
Ceiling: 5400 feet AGL
Clouds: few clouds at 700 feet AGL
broken clouds at 5400 feet AGL
Weather: no significant weather observed at this time

METAR text: EFMA 160520Z AUTO 25005KT 200V300 9999 SCT007 SCT024 OVC053 12/11 Q1003
Conditions at: EFMA (MARIEHAMN/ALAND , FI) observed 0520 UTC 16 July 2019
Temperature: 12.0°C (54°F)
Dewpoint: 11.0°C (52°F) [RH = 94%]
Pressure (altimeter): 29.62 inches Hg (1003.0 mb)
Winds: from the WSW (250 degrees) at 6 MPH (5 knots; 2.6 m/s)
Visibility: 6 or more miles (10+ km)
Ceiling: 5300 feet AGL
Clouds: scattered clouds at 700 feet AGL
scattered clouds at 2400 feet AGL
overcast cloud deck at 5300 feet AGL
Weather: no significant weather observed at this time

METAR text: EFMA 160450Z AUTO 26004KT 220V300 9999 FEW007 BKN040 12/11 Q1003
Conditions at: EFMA (MARIEHAMN/ALAND , FI) observed 0450 UTC 16 July 2019
Temperature: 12.0°C (54°F)
Dewpoint: 11.0°C (52°F) [RH = 94%]
Pressure (altimeter): 29.62 inches Hg (1003.0 mb)
Winds: from the W (260 degrees) at 5 MPH (4 knots; 2.1 m/s)
Visibility: 6 or more miles (10+ km)
Ceiling: 4000 feet AGL
Clouds: few clouds at 700 feet AGL
broken clouds at 4000 feet AGL
Weather: no significant weather observed at this time

METAR text: EFMA 160420Z 24002KT 9999 BKN012 12/11 Q1003
Conditions at: EFMA (MARIEHAMN/ALAND , FI) observed 0420 UTC 16 July 2019
Temperature: 12.0°C (54°F)
Dewpoint: 11.0°C (52°F) [RH = 94%]
Pressure (altimeter): 29.62 inches Hg (1003.0 mb)
Winds: from the WSW (240 degrees) at 2 MPH (2 knots; 1.0 m/s)
Visibility: 6 or more miles (10+ km)
Ceiling: 1200 feet AGL
Clouds: broken clouds at 1200 feet AGL
Weather: no significant weather observed at this time

METAR text: EFMA 160350Z VRB02KT 9999 BKN041 12/10 Q1003
Conditions at: EFMA (MARIEHAMN/ALAND , FI) observed 0350 UTC 16 July 2019
Temperature: 12.0°C (54°F)
Dewpoint: 10.0°C (50°F) [RH = 88%]
Pressure (altimeter): 29.62 inches Hg (1003.0 mb)
Winds: variable direction winds at 2 MPH (2 knots; 1.0 m/s)
Visibility: 6 or more miles (10+ km)
Ceiling: 4100 feet AGL
Clouds: broken clouds at 4100 feet AGL
Weather: no significant weather observed at this time

METAR text: EFMA 160320Z VRB02KT 9999 BKN041 11/10 Q1003
Conditions at: EFMA (MARIEHAMN/ALAND , FI) observed 0320 UTC 16 July 2019
Temperature: 11.0°C (52°F)
Dewpoint: 10.0°C (50°F) [RH = 94%]
Pressure (altimeter): 29.62 inches Hg (1003.0 mb)
Winds: variable direction winds at 2 MPH (2 knots; 1.0 m/s)
Visibility: 6 or more miles (10+ km)
Ceiling: 4100 feet AGL
Clouds: broken clouds at 4100 feet AGL
Weather: no significant weather observed at this time

METAR text: EFMA 160250Z AUTO 27003KT 210V310 9999 FEW021 BKN035 11/10 Q1004
Conditions at: EFMA (MARIEHAMN/ALAND , FI) observed 0250 UTC 16 July 2019
Temperature: 11.0°C (52°F)
Dewpoint: 10.0°C (50°F) [RH = 94%]
Pressure (altimeter): 29.65 inches Hg (1004.0 mb)
Winds: from the W (270 degrees) at 3 MPH (3 knots; 1.5 m/s)
Visibility: 6 or more miles (10+ km)
Ceiling: 3500 feet AGL
Clouds: few clouds at 2100 feet AGL
broken clouds at 3500 feet AGL
Weather: no significant weather observed at this time

METAR text: EFMA 160220Z AUTO VRB02KT 9999 FEW011 BKN043 11/10 Q1004
Conditions at: EFMA (MARIEHAMN/ALAND , FI) observed 0220 UTC 16 July 2019
Temperature: 11.0°C (52°F)
Dewpoint: 10.0°C (50°F) [RH = 94%]
Pressure (altimeter): 29.65 inches Hg (1004.0 mb)
Winds: variable direction winds at 2 MPH (2 knots; 1.0 m/s)
Visibility: 6 or more miles (10+ km)
Ceiling: 4300 feet AGL
Clouds: few clouds at 1100 feet AGL
broken clouds at 4300 feet AGL
Weather: no significant weather observed at this time

METAR text: EFMA 160150Z AUTO 26003KT 200V300 9999 BKN035 BKN086 10/09 Q1004
Conditions at: EFMA (MARIEHAMN/ALAND , FI) observed 0150 UTC 16 July 2019
Temperature: 10.0°C (50°F)
Dewpoint: 9.0°C (48°F) [RH = 93%]
Pressure (altimeter): 29.65 inches Hg (1004.0 mb)
Winds: from the W (260 degrees) at 3 MPH (3 knots; 1.5 m/s)
Visibility: 6 or more miles (10+ km)
Ceiling: 3500 feet AGL
Clouds: broken clouds at 3500 feet AGL
broken clouds at 8600 feet AGL
Weather: no significant weather observed at this time

METAR text: EFMA 160120Z AUTO VRB02KT 9999 BKN037 BKN085 10/09 Q1004
Conditions at: EFMA (MARIEHAMN/ALAND , FI) observed 0120 UTC 16 July 2019
Temperature: 10.0°C (50°F)
Dewpoint: 9.0°C (48°F) [RH = 93%]
Pressure (altimeter): 29.65 inches Hg (1004.0 mb)
Winds: variable direction winds at 2 MPH (2 knots; 1.0 m/s)
Visibility: 6 or more miles (10+ km)
Ceiling: 3700 feet AGL
Clouds: broken clouds at 3700 feet AGL
broken clouds at 8500 feet AGL
Weather: no significant weather observed at this time

METAR text: EFMA 160050Z AUTO VRB03KT 9999 SCT028 10/09 Q1004
Conditions at: EFMA (MARIEHAMN/ALAND , FI) observed 0050 UTC 16 July 2019
Temperature: 10.0°C (50°F)
Dewpoint: 9.0°C (48°F) [RH = 93%]
Pressure (altimeter): 29.65 inches Hg (1004.0 mb)
Winds: variable direction winds at 3 MPH (3 knots; 1.5 m/s)
Visibility: 6 or more miles (10+ km)
Ceiling: at least 12,000 feet AGL
Clouds: scattered clouds at 2800 feet AGL
Weather: no significant weather observed at this time

METAR text: EFMA 160020Z AUTO 30005KT 260V330 9999 -SHRA OVC019 11/10 Q1004
Conditions at: EFMA (MARIEHAMN/ALAND , FI) observed 0020 UTC 16 July 2019
Temperature: 11.0°C (52°F)
Dewpoint: 10.0°C (50°F) [RH = 94%]
Pressure (altimeter): 29.65 inches Hg (1004.0 mb)
Winds: from the WNW (300 degrees) at 6 MPH (5 knots; 2.6 m/s)
Visibility: 6 or more miles (10+ km)
Ceiling: 1900 feet AGL
Clouds: overcast cloud deck at 1900 feet AGL
Weather: -SHRA  (light rain showers)

METAR text: EFMA 152350Z AUTO 31005KT 270V330 9999 BKN021 BKN053 11/10 Q1004
Conditions at: EFMA (MARIEHAMN/ALAND , FI) observed 2350 UTC 15 July 2019
Temperature: 11.0°C (52°F)
Dewpoint: 10.0°C (50°F) [RH = 94%]
Pressure (altimeter): 29.65 inches Hg (1004.0 mb)
Winds: from the NW (310 degrees) at 6 MPH (5 knots; 2.6 m/s)
Visibility: 6 or more miles (10+ km)
Ceiling: 2100 feet AGL
Clouds: broken clouds at 2100 feet AGL
broken clouds at 5300 feet AGL
Weather: no significant weather observed at this time

METAR text: EFMA 152320Z AUTO 29005KT 240V330 9999 BKN013 11/10 Q1004
Conditions at: EFMA (MARIEHAMN/ALAND , FI) observed 2320 UTC 15 July 2019
Temperature: 11.0°C (52°F)
Dewpoint: 10.0°C (50°F) [RH = 94%]
Pressure (altimeter): 29.65 inches Hg (1004.0 mb)
Winds: from the WNW (290 degrees) at 6 MPH (5 knots; 2.6 m/s)
Visibility: 6 or more miles (10+ km)
Ceiling: 1300 feet AGL
Clouds: broken clouds at 1300 feet AGL
Weather: no significant weather observed at this time

METAR text: EFMA 152250Z AUTO 31004KT 280V340 9999 SCT007 SCT011 BKN025 11/10 Q1005
Conditions at: EFMA (MARIEHAMN/ALAND , FI) observed 2250 UTC 15 July 2019
Temperature: 11.0°C (52°F)
Dewpoint: 10.0°C (50°F) [RH = 94%]
Pressure (altimeter): 29.68 inches Hg (1005.0 mb)
Winds: from the NW (310 degrees) at 5 MPH (4 knots; 2.1 m/s)
Visibility: 6 or more miles (10+ km)
Ceiling: 2500 feet AGL
Clouds: scattered clouds at 700 feet AGL
scattered clouds at 1100 feet AGL
broken clouds at 2500 feet AGL
Weather: no significant weather observed at this time

METAR text: EFMA 152220Z AUTO 31004KT 280V350 9999 SCT008 BKN066 11/10 Q1005
Conditions at: EFMA (MARIEHAMN/ALAND , FI) observed 2220 UTC 15 July 2019
Temperature: 11.0°C (52°F)
Dewpoint: 10.0°C (50°F) [RH = 94%]
Pressure (altimeter): 29.68 inches Hg (1005.0 mb)
Winds: from the NW (310 degrees) at 5 MPH (4 knots; 2.1 m/s)
Visibility: 6 or more miles (10+ km)
Ceiling: 6600 feet AGL
Clouds: scattered clouds at 800 feet AGL
broken clouds at 6600 feet AGL
Weather: no significant weather observed at this time

METAR text: EFMA 152150Z AUTO 32004KT 9999 FEW012 BKN056 11/10 Q1005
Conditions at: EFMA (MARIEHAMN/ALAND , FI) observed 2150 UTC 15 July 2019
Temperature: 11.0°C (52°F)
Dewpoint: 10.0°C (50°F) [RH = 94%]
Pressure (altimeter): 29.68 inches Hg (1005.0 mb)
Winds: from the NW (320 degrees) at 5 MPH (4 knots; 2.1 m/s)
Visibility: 6 or more miles (10+ km)
Ceiling: 5600 feet AGL
Clouds: few clouds at 1200 feet AGL
broken clouds at 5600 feet AGL
Weather: no significant weather observed at this time

METAR text: EFMA 152120Z AUTO 32007KT 290V350 9999 OVC017 11/10 Q1005
Conditions at: EFMA (MARIEHAMN/ALAND , FI) observed 2120 UTC 15 July 2019
Temperature: 11.0°C (52°F)
Dewpoint: 10.0°C (50°F) [RH = 94%]
Pressure (altimeter): 29.68 inches Hg (1005.0 mb)
Winds: from the NW (320 degrees) at 8 MPH (7 knots; 3.6 m/s)
Visibility: 6 or more miles (10+ km)
Ceiling: 1700 feet AGL
Clouds: overcast cloud deck at 1700 feet AGL
Weather: no significant weather observed at this time

METAR text: EFMA 152050Z AUTO 32005KT 9999 SCT007 OVC031 12/11 Q1005
Conditions at: EFMA (MARIEHAMN/ALAND , FI) observed 2050 UTC 15 July 2019
Temperature: 12.0°C (54°F)
Dewpoint: 11.0°C (52°F) [RH = 94%]
Pressure (altimeter): 29.68 inches Hg (1005.0 mb)
Winds: from the NW (320 degrees) at 6 MPH (5 knots; 2.6 m/s)
Visibility: 6 or more miles (10+ km)
Ceiling: 3100 feet AGL
Clouds: scattered clouds at 700 feet AGL
overcast cloud deck at 3100 feet AGL
Weather: no significant weather observed at this time

METAR text: EFMA 152020Z AUTO 33006KT 300V360 9999 OVC005 12/11 Q1005
Conditions at: EFMA (MARIEHAMN/ALAND , FI) observed 2020 UTC 15 July 2019
Temperature: 12.0°C (54°F)
Dewpoint: 11.0°C (52°F) [RH = 94%]
Pressure (altimeter): 29.68 inches Hg (1005.0 mb)
Winds: from the NNW (330 degrees) at 7 MPH (6 knots; 3.1 m/s)
Visibility: 6 or more miles (10+ km)
Ceiling: 500 feet AGL
Clouds: overcast cloud deck at 500 feet AGL
Weather: no significant weather observed at this time

METAR text: EFMA 151950Z AUTO 33008KT 310V020 5000 -RA BKN004 OVC020 12/11 Q1005
Conditions at: EFMA (MARIEHAMN/ALAND , FI) observed 1950 UTC 15 July 2019
Temperature: 12.0°C (54°F)
Dewpoint: 11.0°C (52°F) [RH = 94%]
Pressure (altimeter): 29.68 inches Hg (1005.0 mb)
Winds: from the NNW (330 degrees) at 9 MPH (8 knots; 4.1 m/s)
Visibility: 3 miles ( 5 km)
Ceiling: 400 feet AGL
Clouds: broken clouds at 400 feet AGL
overcast cloud deck at 2000 feet AGL
Weather: -RA  (light rain)

METAR text: EFMA 151920Z AUTO 33005KT 300V360 4500 -RA OVC007 12/11 Q1005
Conditions at: EFMA (MARIEHAMN/ALAND , FI) observed 1920 UTC 15 July 2019
Temperature: 12.0°C (54°F)
Dewpoint: 11.0°C (52°F) [RH = 94%]
Pressure (altimeter): 29.68 inches Hg (1005.0 mb)
Winds: from the NNW (330 degrees) at 6 MPH (5 knots; 2.6 m/s)
Visibility: 2.80 miles (4.51 km)
Ceiling: 700 feet AGL
Clouds: overcast cloud deck at 700 feet AGL
Weather: -RA  (light rain)

METAR text: EFMA 151850Z AUTO 34008KT 320V020 7000 RA OVC003 12/11 Q1005
Conditions at: EFMA (MARIEHAMN/ALAND , FI) observed 1850 UTC 15 July 2019
Temperature: 12.0°C (54°F)
Dewpoint: 11.0°C (52°F) [RH = 94%]
Pressure (altimeter): 29.68 inches Hg (1005.0 mb)
Winds: from the NNW (340 degrees) at 9 MPH (8 knots; 4.1 m/s)
Visibility: 4 miles ( 7 km)
Ceiling: 300 feet AGL
Clouds: overcast cloud deck at 300 feet AGL
Weather: RA  (moderate rain)

METAR text: EFMA 151820Z AUTO 33005KT 290V360 9999 -RA OVC006 12/11 Q1006
Conditions at: EFMA (MARIEHAMN/ALAND , FI) observed 1820 UTC 15 July 2019
Temperature: 12.0°C (54°F)
Dewpoint: 11.0°C (52°F) [RH = 94%]
Pressure (altimeter): 29.70 inches Hg (1006.0 mb)
Winds: from the NNW (330 degrees) at 6 MPH (5 knots; 2.6 m/s)
Visibility: 6 or more miles (10+ km)
Ceiling: 600 feet AGL
Clouds: overcast cloud deck at 600 feet AGL
Weather: -RA  (light rain)

METAR text: EFMA 151750Z AUTO 34004KT 300V010 9999 -RA OVC007 12/11 Q1006
Conditions at: EFMA (MARIEHAMN/ALAND , FI) observed 1750 UTC 15 July 2019
Temperature: 12.0°C (54°F)
Dewpoint: 11.0°C (52°F) [RH = 94%]
Pressure (altimeter): 29.70 inches Hg (1006.0 mb)
Winds: from the NNW (340 degrees) at 5 MPH (4 knots; 2.1 m/s)
Visibility: 6 or more miles (10+ km)
Ceiling: 700 feet AGL
Clouds: overcast cloud deck at 700 feet AGL
Weather: -RA  (light rain)

METAR text: EFMA 151720Z AUTO 35004KT 310V030 9999 -RA OVC005 12/11 Q1006
Conditions at: EFMA (MARIEHAMN/ALAND , FI) observed 1720 UTC 15 July 2019
Temperature: 12.0°C (54°F)
Dewpoint: 11.0°C (52°F) [RH = 94%]
Pressure (altimeter): 29.70 inches Hg (1006.0 mb)
Winds: from the N (350 degrees) at 5 MPH (4 knots; 2.1 m/s)
Visibility: 6 or more miles (10+ km)
Ceiling: 500 feet AGL
Clouds: overcast cloud deck at 500 feet AGL
Weather: -RA  (light rain)

METAR text: EFMA 151650Z AUTO 36006KT 330V040 9999 -RA OVC005 12/11 Q1006
Conditions at: EFMA (MARIEHAMN/ALAND , FI) observed 1650 UTC 15 July 2019
Temperature: 12.0°C (54°F)
Dewpoint: 11.0°C (52°F) [RH = 94%]
Pressure (altimeter): 29.70 inches Hg (1006.0 mb)
Winds: from the N (360 degrees) at 7 MPH (6 knots; 3.1 m/s)
Visibility: 6 or more miles (10+ km)
Ceiling: 500 feet AGL
Clouds: overcast cloud deck at 500 feet AGL
Weather: -RA  (light rain)

METAR text: EFMA 151620Z AUTO 01008KT 330V040 9999 -SHRA SCT006 OVC061 //////CB 12/11 Q1006
Conditions at: EFMA (MARIEHAMN/ALAND , FI) observed 1620 UTC 15 July 2019
Temperature: 12.0°C (54°F)
Dewpoint: 11.0°C (52°F) [RH = 94%]
Pressure (altimeter): 29.70 inches Hg (1006.0 mb)
Winds: from the N (10 degrees) at 9 MPH (8 knots; 4.1 m/s)
Visibility: 6 or more miles (10+ km)
Ceiling: 6100 feet AGL
Clouds: scattered clouds at 600 feet AGL
overcast cloud deck at 6100 feet AGL
Weather: -SHRA  (light rain showers)

METAR text: EFMA 151550Z AUTO 04008KT 9999 SHRA FEW005 SCT019 OVC071 //////CB 12/11 Q1006
Conditions at: EFMA (MARIEHAMN/ALAND , FI) observed 1550 UTC 15 July 2019
Temperature: 12.0°C (54°F)
Dewpoint: 11.0°C (52°F) [RH = 94%]
Pressure (altimeter): 29.70 inches Hg (1006.0 mb)
Winds: from the NE (40 degrees) at 9 MPH (8 knots; 4.1 m/s)
Visibility: 6 or more miles (10+ km)
Ceiling: 7100 feet AGL
Clouds: few clouds at 500 feet AGL
scattered clouds at 1900 feet AGL
overcast cloud deck at 7100 feet AGL
Weather: SHRA  (rain showers)

METAR text: EFMA 151520Z AUTO 02007KT 9999 SHRA BKN018 OVC038 //////CB 12/11 Q1007
Conditions at: EFMA (MARIEHAMN/ALAND , FI) observed 1520 UTC 15 July 2019
Temperature: 12.0°C (54°F)
Dewpoint: 11.0°C (52°F) [RH = 94%]
Pressure (altimeter): 29.73 inches Hg (1007.0 mb)
Winds: from the NNE (20 degrees) at 8 MPH (7 knots; 3.6 m/s)
Visibility: 6 or more miles (10+ km)
Ceiling: 1800 feet AGL
Clouds: broken clouds at 1800 feet AGL
overcast cloud deck at 3800 feet AGL
Weather: SHRA  (rain showers)

METAR text: EFMA 151450Z AUTO 01008KT 340V040 9999 SHRA VCTS FEW005 BKN017 BKN052 //////CB 12/11 Q1007
Conditions at: EFMA (MARIEHAMN/ALAND , FI) observed 1450 UTC 15 July 2019
Temperature: 12.0°C (54°F)
Dewpoint: 11.0°C (52°F) [RH = 94%]
Pressure (altimeter): 29.73 inches Hg (1007.0 mb)
Winds: from the N (10 degrees) at 9 MPH (8 knots; 4.1 m/s)
Visibility: 6 or more miles (10+ km)
Ceiling: 1700 feet AGL
Clouds: few clouds at 500 feet AGL
broken clouds at 1700 feet AGL
broken clouds at 5200 feet AGL
Weather: SHRA VCTS  (rain showers, thunderstorm in vicinity)

METAR text: EFMA 151420Z AUTO 36007KT 330V030 9999 +SHRA BKN015 OVC048 //////CB 13/12 Q1007
Conditions at: EFMA (MARIEHAMN/ALAND , FI) observed 1420 UTC 15 July 2019
Temperature: 13.0°C (55°F)
Dewpoint: 12.0°C (54°F) [RH = 94%]
Pressure (altimeter): 29.73 inches Hg (1007.0 mb)
Winds: from the N (360 degrees) at 8 MPH (7 knots; 3.6 m/s)
Visibility: 6 or more miles (10+ km)
Ceiling: 1500 feet AGL
Clouds: broken clouds at 1500 feet AGL
overcast cloud deck at 4800 feet AGL
Weather: +SHRA  (heavy rain showers)

METAR text: EFMA 151350Z AUTO 33008KT 300V010 9999 SHRA BKN017 OVC047 //////CB 13/12 Q1007
Conditions at: EFMA (MARIEHAMN/ALAND , FI) observed 1350 UTC 15 July 2019
Temperature: 13.0°C (55°F)
Dewpoint: 12.0°C (54°F) [RH = 94%]
Pressure (altimeter): 29.73 inches Hg (1007.0 mb)
Winds: from the NNW (330 degrees) at 9 MPH (8 knots; 4.1 m/s)
Visibility: 6 or more miles (10+ km)
Ceiling: 1700 feet AGL
Clouds: broken clouds at 1700 feet AGL
overcast cloud deck at 4700 feet AGL
Weather: SHRA  (rain showers)

METAR text: EFMA 151320Z AUTO 34006KT 290V010 9999 -SHRA OVC016 //////CB 15/12 Q1007
Conditions at: EFMA (MARIEHAMN/ALAND , FI) observed 1320 UTC 15 July 2019
Temperature: 15.0°C (59°F)
Dewpoint: 12.0°C (54°F) [RH = 82%]
Pressure (altimeter): 29.73 inches Hg (1007.0 mb)
Winds: from the NNW (340 degrees) at 7 MPH (6 knots; 3.1 m/s)
Visibility: 6 or more miles (10+ km)
Ceiling: 1600 feet AGL
Clouds: overcast cloud deck at 1600 feet AGL
Weather: -SHRA  (light rain showers)

METAR text: EFMA 151250Z AUTO 02004KT 9999 -SHRA BKN022 //////CB 16/12 Q1007
Conditions at: EFMA (MARIEHAMN/ALAND , FI) observed 1250 UTC 15 July 2019
Temperature: 16.0°C (61°F)
Dewpoint: 12.0°C (54°F) [RH = 77%]
Pressure (altimeter): 29.73 inches Hg (1007.0 mb)
Winds: from the NNE (20 degrees) at 5 MPH (4 knots; 2.1 m/s)
Visibility: 6 or more miles (10+ km)
Ceiling: 2200 feet AGL
Clouds: broken clouds at 2200 feet AGL
Weather: -SHRA  (light rain showers)

METAR text: EFMA 151220Z AUTO 05005KT 020V080 9999 VCSH BKN022 OVC060 //////CB 17/12 Q1007
Conditions at: EFMA (MARIEHAMN/ALAND , FI) observed 1220 UTC 15 July 2019
Temperature: 17.0°C (63°F)
Dewpoint: 12.0°C (54°F) [RH = 72%]
Pressure (altimeter): 29.73 inches Hg (1007.0 mb)
Winds: from the NE (50 degrees) at 6 MPH (5 knots; 2.6 m/s)
Visibility: 6 or more miles (10+ km)
Ceiling: 2200 feet AGL
Clouds: broken clouds at 2200 feet AGL
overcast cloud deck at 6000 feet AGL
Weather: VCSH  (showers in vicinity)

Forecast for: EFMA (MARIEHAMN/ALAND , FI)
Text: TAF EFMA 162324Z 1700/1709 VRB02KT 6000 FEW006 SCT040
Forecast period: 0000 to 0500 UTC 17 July 2019
Forecast type: FROM: standard forecast or significant change
Winds: variable direction winds at 2 MPH (2 knots; 1.0 m/s)
Visibility: 4 miles (6 km)
Ceiling: at least 12,000 feet AGL
Clouds: few clouds at 600 feet AGL
scattered clouds at 4000 feet AGL
Weather: no significant weather forecast for this period
Text: TEMPO 1700/1705 1200 BR BKN002
Forecast period: 0000 to 0500 UTC 17 July 2019
Forecast type: TEMPORARY: The following changes expected for less than half the time period
Visibility: 0.75 miles (1.21 km)
Ceiling: 200 feet AGL
Clouds: broken clouds at 200 feet AGL
Weather: BR  (mist)
Text: BECMG 1705/1707 CAVOK
Forecast period: 0500 to 0900 UTC 17 July 2019
Forecast type: BECOMING: Conditions expected to become as follows by 0700 UTC 17 July 2019
Winds: variable direction winds at 2 MPH (2 knots; 1.0 m/s)
Visibility: 6 or more miles 10+ km)
Ceiling: unknown
Clouds: missing
Weather: NSW  (no significant weather)